This is the latest recevied weather packets stored in our database for station/object KG7KID-5. If no packets are shown the sender has not sent any weather packets the latest 10 day(s).
| Time | Temp. | Humidity | Pressure | Rain* | Wind** | Luminosity | Snow |
|---|---|---|---|---|---|---|---|
| 1778027897 | 20.56° C | 22% | 924.2 hPa | 0 mm | - | - | - |
| 1778027455 | 21.67° C | 21% | 924.1 hPa | 0 mm | - | - | - |
| 1778027296 | 21.67° C | 21% | 924.1 hPa | 0 mm | - | - | - |
| 1778026677 | 21.67° C | 22% | 923.9 hPa | 0 mm | - | - | - |
| 1778026485 | 21.67° C | 22% | 923.9 hPa | 0 mm | - | - | - |
| 1778025483 | 21.67° C | 20% | 923.9 hPa | 0 mm | - | - | - |
| 1778025363 | 21.67° C | 21% | 923.8 hPa | 0 mm | - | - | - |
| 1778025183 | 21.67° C | 21% | 923.8 hPa | 0 mm | - | - | - |
| 1778024994 | 21.11° C | 21% | 923.8 hPa | 0 mm | - | - | - |
| 1778024883 | 21.11° C | 21% | 923.8 hPa | 0 mm | - | - | - |
| 1778023983 | 21.67° C | 21% | 923.7 hPa | 0 mm | - | - | - |
| 1778023887 | 21.67° C | 21% | 923.7 hPa | 0 mm | - | - | - |
| 1778023683 | 21.67° C | 21% | 923.7 hPa | 0 mm | - | - | - |
| 1778023219 | 21.11° C | 22% | 923.8 hPa | 0 mm | - | - | - |
| 1778023065 | 20.56° C | 23% | 923.6 hPa | 0 mm | - | - | - |
| 1778022920 | 20.56° C | 23% | 923.6 hPa | 0 mm | - | - | - |
| 1778022918 | 20.56° C | 23% | 923.6 hPa | 0 mm | - | - | - |
| 1778022810 | 21.11° C | 22% | 923.6 hPa | 0 mm | - | - | - |
| 1778022619 | 21.11° C | 22% | 923.6 hPa | 0 mm | - | - | - |
| 1778022018 | 20.56° C | 26% | 923.6 hPa | 0 mm | - | - | - |
| 1778020819 | 20° C | 25% | 923.8 hPa | 0 mm | - | - | - |
| 1778020337 | 20° C | 25% | 923.7 hPa | 0 mm | - | - | - |
| 1778020268 | 20° C | 25% | 923.7 hPa | 0 mm | - | - | - |
| 1778019213 | 18.89° C | 30% | 923.8 hPa | 0 mm | - | - | - |
| 1778019068 | 18.89° C | 30% | 923.8 hPa | 0 mm | - | - | - |
* Rain latest hour (hover to see other rain measurements)
** Current wind speed in m/s (hover to see current wind gust speed)